Time;durP1;ratioP1;P1;durP2;ratioP2;P2;SDS_P1;SDS_P2;PMS_P1;PMS_P2;Temp;Humidity;BMP_temperature;BMP_pressure;BME280_temperature;BME280_humidity;BME280_pressure;Samples;Min_cycle;Max_cycle;Signal;HPM_P1;HPM_P2
2022/11/09 00:01:14;;;;;;;5.43;1.52;;;;;;;19.70;51.08;100440.38;5062486;28;20079;-65
2022/11/09 00:03:39;;;;;;;4.13;1.33;;;;;;;19.68;51.19;100437.88;5062471;28;20036;-66
2022/11/09 00:06:04;;;;;;;5.17;1.50;;;;;;;19.61;51.14;100431.47;5061815;28;20363;-65
2022/11/09 00:08:29;;;;;;;3.72;1.30;;;;;;;19.63;50.87;100428.69;5062375;28;20280;-66
2022/11/09 00:11:01;;;;;;;3.13;1.40;;;;;;;19.61;51.13;100431.47;5062013;28;20043;-67
2022/11/09 00:13:26;;;;;;;3.33;1.10;;;;;;;19.60;50.94;100421.91;5061791;28;20043;-68
2022/11/09 00:15:52;;;;;;;2.90;1.30;;;;;;;19.62;50.96;100429.69;5062108;28;20036;-66
2022/11/09 00:18:17;;;;;;;2.90;1.20;;;;;;;19.60;51.12;100428.97;5062101;28;20257;-65
2022/11/09 00:20:42;;;;;;;4.43;1.52;;;;;;;19.60;51.16;100434.25;5061732;28;20348;-65
2022/11/09 00:23:07;;;;;;;4.10;1.33;;;;;;;19.56;51.17;100429.25;5062039;28;20086;-65
2022/11/09 00:25:33;;;;;;;2.50;1.20;;;;;;;19.54;51.08;100425.94;5061322;28;20040;-64
2022/11/09 00:27:58;;;;;;;5.72;1.60;;;;;;;19.53;50.85;100426.09;5061702;28;20258;-67
2022/11/09 00:30:23;;;;;;;3.88;1.35;;;;;;;19.55;51.16;100432.91;5061368;28;20042;-65
2022/11/09 00:32:48;;;;;;;3.35;1.20;;;;;;;19.53;51.19;100428.72;5061685;28;20040;-65
2022/11/09 00:35:14;;;;;;;3.73;1.20;;;;;;;19.55;51.06;100427.63;5061568;28;20032;-65
2022/11/09 00:37:39;;;;;;;4.25;1.73;;;;;;;19.51;50.94;100418.28;5061536;28;20275;-65
2022/11/09 00:40:05;;;;;;;4.43;1.50;;;;;;;19.54;51.04;100415.38;5060914;28;20027;-66
2022/11/09 00:42:30;;;;;;;4.00;1.65;;;;;;;19.53;50.86;100428.72;5061573;28;20368;-66
2022/11/09 00:44:55;;;;;;;6.33;2.90;;;;;;;19.49;50.50;100422.06;5061285;28;20117;-64
2022/11/09 00:47:21;;;;;;;5.00;2.08;;;;;;;19.48;51.04;100415.13;5061366;28;20268;-66
2022/11/09 00:49:46;;;;;;;7.00;2.50;;;;;;;19.50;51.11;100403.44;5061285;28;20040;-65
2022/11/09 00:52:11;;;;;;;5.03;1.90;;;;;;;19.47;50.96;100414.28;5061460;28;20298;-65
2022/11/09 00:54:36;;;;;;;4.63;1.80;;;;;;;19.50;51.14;100415.78;5060841;28;20975;-66
2022/11/09 00:57:02;;;;;;;4.77;2.00;;;;;;;19.46;51.14;100406.50;5061384;28;20039;-65
2022/11/09 00:59:27;;;;;;;5.68;2.45;;;;;;;19.46;51.21;100401.22;5060990;28;21384;-65
2022/11/09 01:01:52;;;;;;;5.27;2.20;;;;;;;19.47;51.16;100408.16;5061399;28;20533;-64
2022/11/09 01:04:18;;;;;;;4.93;2.30;;;;;;;19.46;51.14;100417.06;5061260;28;20634;-65
2022/11/09 01:06:43;;;;;;;5.40;2.13;;;;;;;19.43;51.19;100409.44;5060881;28;20471;-64
2022/11/09 01:09:08;;;;;;;5.27;2.17;;;;;;;19.41;51.14;100414.88;5060776;28;20033;-64
2022/11/09 01:11:34;;;;;;;6.72;2.17;;;;;;;19.40;51.10;100421.94;5061279;28;20309;-67
2022/11/09 01:13:59;;;;;;;6.50;3.07;;;;;;;19.39;50.98;100422.94;5061112;28;20036;-67
2022/11/09 01:16:25;;;;;;;5.35;2.42;;;;;;;19.42;51.04;100426.25;5060897;28;20273;-64
2022/11/09 01:18:55;;;;;;;5.80;2.28;;;;;;;19.41;51.08;100436.00;5060591;28;20051;-63
2022/11/09 01:21:20;;;;;;;7.65;3.00;;;;;;;19.38;50.98;100436.28;5061254;28;20097;-65
2022/11/09 01:23:45;;;;;;;5.88;2.60;;;;;;;19.39;50.84;100445.84;5060747;28;20036;-65
2022/11/09 01:26:13;;;;;;;7.88;3.50;;;;;;;19.38;51.04;100445.03;5060442;28;20025;-66
2022/11/09 01:28:39;;;;;;;6.60;2.70;;;;;;;19.36;51.07;100446.19;5060562;28;20035;-65
2022/11/09 01:31:11;;;;;;;6.85;2.75;;;;;;;19.36;50.91;100447.00;5061036;28;20067;-66
2022/11/09 01:33:36;;;;;;;6.85;2.95;;;;;;;19.38;51.08;100450.31;5060962;28;20060;-66
2022/11/09 01:36:07;;;;;;;5.65;2.80;;;;;;;19.35;51.17;100447.13;5060829;28;20067;-67
2022/11/09 01:38:34;;;;;;;7.80;3.13;;;;;;;19.37;51.13;100453.09;5060869;28;20068;-66
2022/11/09 01:40:59;;;;;;;6.82;3.30;;;;;;;19.32;51.17;100442.97;5060404;28;20036;-65
2022/11/09 01:43:24;;;;;;;7.38;3.03;;;;;;;19.35;51.10;100453.25;5060670;28;20032;-66
2022/11/09 01:45:56;;;;;;;6.72;3.13;;;;;;;19.33;51.19;100455.22;5042735;28;20029;-66
2022/11/09 01:48:50;;;;;;;5.63;2.92;;;;;;;19.32;51.15;100452.72;5060294;28;20499;-65
2022/11/09 01:51:26;;;;;;;6.57;2.97;;;;;;;19.28;51.01;100435.44;5050977;28;20067;-65
2022/11/09 01:53:57;;;;;;;5.80;2.80;;;;;;;19.31;50.96;100438.66;5060330;28;20052;-65
2022/11/09 01:56:22;;;;;;;5.95;3.03;;;;;;;19.30;51.09;100428.25;5042804;28;20090;-68
2022/11/09 01:58:51;;;;;;;5.72;2.78;;;;;;;19.21;51.18;100421.97;5060640;28;20037;-67
2022/11/09 02:01:17;;;;;;;6.32;3.28;;;;;;;19.27;51.00;100426.72;5060486;28;20547;-65
2022/11/09 02:03:52;;;;;;;6.28;3.13;;;;;;;19.28;50.96;100440.75;5042543;28;20459;-65
2022/11/09 02:06:19;;;;;;;7.43;3.00;;;;;;;19.25;51.13;100439.22;5060322;28;20051;-66
2022/11/09 02:08:46;;;;;;;6.70;2.65;;;;;;;19.23;50.93;100433.25;5060364;28;20048;-65
2022/11/09 02:11:16;;;;;;;7.53;2.80;;;;;;;19.25;51.07;100443.66;5061064;28;20079;-67
2022/11/09 02:13:46;;;;;;;5.38;2.75;;;;;;;19.27;50.93;100450.47;5060809;28;20116;-67
2022/11/09 02:16:13;;;;;;;6.53;2.40;;;;;;;19.21;51.09;100436.03;5060727;28;20078;-65
2022/11/09 02:18:49;;;;;;;6.00;2.55;;;;;;;19.21;50.92;100437.84;5060452;28;20032;-65
2022/11/09 02:21:14;;;;;;;7.22;2.83;;;;;;;19.24;50.88;100445.47;5060614;28;20052;-66
2022/11/09 02:23:40;;;;;;;6.18;2.42;;;;;;;19.18;50.97;100435.47;5060534;28;20464;-65
2022/11/09 02:26:09;;;;;;;5.00;2.13;;;;;;;19.19;50.79;100448.53;5060211;28;20043;-64
2022/11/09 02:28:37;;;;;;;5.18;2.45;;;;;;;19.21;50.92;100451.88;5060410;28;20067;-66
2022/11/09 02:31:04;;;;;;;5.35;2.30;;;;;;;19.18;51.15;100457.47;5062286;28;20036;-66
2022/11/09 02:33:41;;;;;;;8.18;2.58;;;;;;;19.19;51.11;100453.00;5064129;28;20046;-66
2022/11/09 02:36:06;;;;;;;6.07;2.58;;;;;;;19.20;50.95;100471.34;5063762;28;20051;-64
2022/11/09 02:38:32;;;;;;;5.57;2.40;;;;;;;19.21;50.92;100472.19;5064144;28;20032;-65
2022/11/09 02:40:57;;;;;;;5.63;2.40;;;;;;;19.15;50.90;100446.31;5063566;28;20123;-65
2022/11/09 02:43:23;;;;;;;5.40;2.20;;;;;;;19.17;50.98;100439.94;5063652;28;20423;-66
2022/11/09 02:45:48;;;;;;;5.57;2.20;;;;;;;19.18;50.66;100443.41;5063595;28;20024;-66
2022/11/09 02:48:13;;;;;;;5.90;2.20;;;;;;;19.14;50.71;100429.66;5063759;28;20147;-65
2022/11/09 02:50:38;;;;;;;4.87;2.17;;;;;;;19.16;50.90;100443.53;5063522;28;20464;-66
2022/11/09 02:53:04;;;;;;;6.10;2.23;;;;;;;19.13;50.80;100432.44;5063864;28;20932;-66
2022/11/09 02:55:29;;;;;;;7.90;2.40;;;;;;;19.14;50.78;100419.09;5063316;28;20273;-64
2022/11/09 02:57:54;;;;;;;4.90;2.13;;;;;;;19.18;50.75;100403.78;5063747;28;20032;-66
2022/11/09 03:00:20;;;;;;;5.30;2.00;;;;;;;19.16;50.70;100414.47;5062973;28;20078;-67
2022/11/09 03:02:45;;;;;;;5.97;2.20;;;;;;;19.12;50.66;100410.47;5063429;28;20280;-65
2022/11/09 03:05:10;;;;;;;5.28;1.98;;;;;;;19.12;50.74;100428.97;5063179;28;20033;-64
2022/11/09 03:07:36;;;;;;;4.95;2.00;;;;;;;19.11;50.73;100422.00;5063546;28;20140;-67
2022/11/09 03:10:01;;;;;;;7.57;2.75;;;;;;;19.11;50.89;100435.22;5063308;28;20035;-67
2022/11/09 03:12:29;;;;;;;5.63;2.20;;;;;;;19.12;51.04;100458.03;5063240;28;20032;-66
2022/11/09 03:14:56;;;;;;;5.43;1.80;;;;;;;19.10;50.86;100452.03;5063150;28;20028;-67
2022/11/09 03:17:21;;;;;;;5.80;1.80;;;;;;;19.15;50.78;100468.31;5062820;28;20815;-64
2022/11/09 03:19:47;;;;;;;4.72;1.88;;;;;;;19.12;50.80;100471.22;5063179;28;20143;-65
2022/11/09 03:22:13;;;;;;;5.65;2.10;;;;;;;19.11;50.74;100472.19;5063217;28;20051;-65
2022/11/09 03:24:38;;;;;;;6.22;1.90;;;;;;;19.13;50.67;100477.34;5063080;28;20528;-67
2022/11/09 03:27:03;;;;;;;6.18;2.10;;;;;;;19.12;50.74;100489.72;5063277;28;20126;-66
2022/11/09 03:29:29;;;;;;;6.53;1.83;;;;;;;19.13;50.94;100486.09;5063472;28;20037;-65
2022/11/09 03:31:54;;;;;;;6.18;1.98;;;;;;;19.10;50.84;100481.06;5062980;28;20094;-65
2022/11/09 03:34:19;;;;;;;6.53;2.15;;;;;;;19.12;51.02;100488.88;5063408;28;20036;-65
2022/11/09 03:36:45;;;;;;;4.23;1.63;;;;;;;19.08;50.67;100475.09;5062475;28;20044;-64
2022/11/09 03:39:10;;;;;;;4.83;2.03;;;;;;;19.08;50.76;100480.41;5062850;28;20265;-64
2022/11/09 03:41:35;;;;;;;8.40;2.10;;;;;;;19.09;50.93;100484.72;5062033;28;20293;-65
2022/11/09 03:44:00;;;;;;;5.87;2.00;;;;;;;19.11;50.76;100495.97;5062606;28;20270;-66
2022/11/09 03:46:26;;;;;;;5.00;1.52;;;;;;;19.10;50.78;100490.81;5062328;28;20289;-66
2022/11/09 03:48:51;;;;;;;3.65;1.55;;;;;;;19.08;50.80;100496.25;5062056;28;20367;-66
2022/11/09 03:51:17;;;;;;;4.95;1.65;;;;;;;19.10;50.89;100504.84;5062803;28;20064;-66
2022/11/09 03:53:42;;;;;;;4.07;1.50;;;;;;;19.06;50.88;100510.53;5062245;28;20126;-66
2022/11/09 03:56:07;;;;;;;4.33;1.93;;;;;;;19.07;50.98;100506.94;5062530;28;20044;-66
2022/11/09 03:58:33;;;;;;;4.35;1.98;;;;;;;19.07;50.89;100520.97;5044245;28;20840;-67
2022/11/09 04:00:58;;;;;;;4.85;1.60;;;;;;;19.05;50.78;100511.53;5044564;28;20046;-66
2022/11/09 04:03:23;;;;;;;4.47;1.80;;;;;;;19.09;50.89;100518.19;5061875;28;20037;-65
2022/11/09 04:05:48;;;;;;;4.53;1.90;;;;;;;19.08;50.97;100520.00;5061941;28;20291;-65
2022/11/09 04:08:13;;;;;;;4.50;1.60;;;;;;;19.05;50.75;100527.38;5062269;28;20648;-67
2022/11/09 04:10:39;;;;;;;4.40;1.70;;;;;;;19.07;50.83;100526.25;5043862;28;20269;-66
2022/11/09 04:13:04;;;;;;;5.70;1.70;;;;;;;19.02;51.01;100525.84;5061894;28;20266;-66
2022/11/09 04:15:29;;;;;;;4.38;1.40;;;;;;;19.05;50.97;100544.06;5062034;28;20265;-66
2022/11/09 04:17:57;;;;;;;4.28;1.55;;;;;;;19.06;51.00;100532.53;5061580;28;20043;-66
2022/11/09 04:20:22;;;;;;;4.85;1.60;;;;;;;19.06;50.83;100535.16;5061755;28;20040;-64
2022/11/09 04:22:56;;;;;;;4.88;1.50;;;;;;;19.05;50.76;100545.88;5061723;28;20081;-67
2022/11/09 04:25:22;;;;;;;8.65;1.85;;;;;;;19.02;50.71;100541.69;5061602;28;20472;-66
2022/11/09 04:27:47;;;;;;;6.60;1.92;;;;;;;19.03;50.87;100549.47;5061620;28;20043;-66
2022/11/09 04:30:12;;;;;;;4.17;1.50;;;;;;;19.02;50.79;100555.72;5061463;28;20039;-65
2022/11/09 04:32:37;;;;;;;6.32;1.92;;;;;;;19.04;50.84;100563.50;5061449;28;20883;-65
2022/11/09 04:35:03;;;;;;;5.57;1.53;;;;;;;18.98;50.76;100548.25;5061753;28;20875;-66
2022/11/09 04:37:28;;;;;;;3.95;1.40;;;;;;;18.99;51.03;100557.81;5062698;28;20265;-64
2022/11/09 04:39:53;;;;;;;4.87;1.50;;;;;;;18.98;50.74;100558.81;5063146;28;20044;-64
2022/11/09 04:42:19;;;;;;;4.67;1.70;;;;;;;19.01;50.68;100569.09;5061772;28;20257;-66
2022/11/09 04:44:44;;;;;;;4.67;1.50;;;;;;;19.01;50.80;100567.28;5061174;28;20381;-65
2022/11/09 04:47:09;;;;;;;5.53;1.53;;;;;;;19.00;50.98;100564.78;5061291;28;20280;-66
2022/11/09 04:49:34;;;;;;;3.87;1.53;;;;;;;18.94;50.64;100565.31;5061292;28;20270;-66
2022/11/09 04:52:00;;;;;;;4.33;1.87;;;;;;;18.96;50.90;100561.56;5061234;28;20258;-63
2022/11/09 04:54:25;;;;;;;4.95;1.45;;;;;;;18.98;50.68;100570.19;5060291;28;20295;-66
2022/11/09 04:56:50;;;;;;;3.63;1.57;;;;;;;18.96;50.96;100568.63;5061201;28;20032;-66
2022/11/09 04:59:15;;;;;;;5.63;1.67;;;;;;;18.97;50.74;100565.03;5061281;28;20308;-66
2022/11/09 05:01:41;;;;;;;5.93;1.60;;;;;;;18.97;50.90;100565.88;5060854;28;20355;-66
2022/11/09 05:04:06;;;;;;;5.17;1.57;;;;;;;18.93;50.91;100567.13;5060989;28;20036;-65
2022/11/09 05:06:31;;;;;;;4.03;1.50;;;;;;;18.94;50.86;100562.66;5060919;28;20316;-66
2022/11/09 05:09:02;;;;;;;4.20;1.40;;;;;;;18.94;50.82;100557.38;5061370;28;20269;-66
2022/11/09 05:11:28;;;;;;;4.57;1.55;;;;;;;18.97;50.78;100565.03;5061056;28;20135;-65
2022/11/09 05:13:53;;;;;;;3.78;1.40;;;;;;;18.91;50.77;100550.56;5061170;28;20037;-66
2022/11/09 05:16:19;;;;;;;4.43;1.50;;;;;;;18.94;50.65;100552.94;5060796;28;20062;-65
2022/11/09 05:18:44;;;;;;;4.50;1.35;;;;;;;18.95;50.80;100551.16;5060749;28;20272;-66
2022/11/09 05:21:10;;;;;;;4.75;1.50;;;;;;;18.90;50.80;100548.06;5060943;28;20029;-66
2022/11/09 05:24:17;;;;;;;4.47;1.42;;;;;;;18.89;50.86;100549.06;5061299;28;20178;-66
2022/11/09 05:26:37;;;;;;;5.63;1.70;;;;;;;18.93;50.71;100556.56;5051925;28;20101;-66
2022/11/09 05:29:06;;;;;;;3.65;1.20;;;;;;;18.92;50.89;100554.88;5060451;28;20066;-66
2022/11/09 05:31:32;;;;;;;4.28;1.50;;;;;;;18.89;50.79;100543.78;5060529;28;20028;-65
2022/11/09 05:33:58;;;;;;;4.22;1.40;;;;;;;18.92;50.95;100554.88;5061029;28;20430;-66
2022/11/09 05:36:24;;;;;;;5.00;1.88;;;;;;;18.91;50.95;100561.13;5060346;28;20404;-66
2022/11/09 05:38:50;;;;;;;5.80;1.50;;;;;;;18.91;50.81;100555.84;5060787;28;20032;-66
2022/11/09 05:41:15;;;;;;;5.15;1.30;;;;;;;18.91;50.99;100553.19;5060870;28;20039;-66
2022/11/09 05:43:43;;;;;;;4.22;1.42;;;;;;;18.91;50.72;100560.31;5060725;28;20439;-66
2022/11/09 05:46:09;;;;;;;5.35;2.00;;;;;;;18.90;50.80;100561.25;5060701;28;20047;-65
2022/11/09 05:48:34;;;;;;;4.80;1.58;;;;;;;18.84;50.60;100554.75;5060936;28;20041;-66
2022/11/09 05:51:01;;;;;;;4.82;1.50;;;;;;;18.90;50.79;100561.25;5060655;28;20423;-66
2022/11/09 05:53:26;;;;;;;3.20;1.13;;;;;;;18.87;50.88;100559.75;5060529;28;20055;-66
2022/11/09 05:55:52;;;;;;;4.18;1.15;;;;;;;18.85;50.78;100551.13;5060690;28;20468;-64
2022/11/09 05:58:17;;;;;;;4.03;1.37;;;;;;;18.89;50.76;100559.63;5060573;28;20116;-65
2022/11/09 06:00:42;;;;;;;3.55;1.20;;;;;;;18.83;50.64;100551.25;5060082;28;20296;-66
2022/11/09 06:03:10;;;;;;;5.47;1.52;;;;;;;18.83;50.70;100558.31;5061289;28;20456;-66
2022/11/09 06:05:38;;;;;;;3.63;1.23;;;;;;;18.88;50.67;100568.50;5063508;28;20028;-64
2022/11/09 06:08:05;;;;;;;3.95;1.30;;;;;;;18.86;50.51;100566.00;5064258;28;20020;-66
2022/11/09 06:10:30;;;;;;;3.38;1.50;;;;;;;18.85;50.64;100567.81;5064088;28;20042;-66
2022/11/09 06:12:56;;;;;;;4.10;1.20;;;;;;;18.84;50.76;100567.94;5064396;28;20040;-66
2022/11/09 06:15:21;;;;;;;4.32;1.45;;;;;;;18.83;50.69;100564.44;5064149;28;20028;-66
2022/11/09 06:17:54;;;;;;;4.72;1.42;;;;;;;18.84;50.87;100567.94;5064319;28;20384;-64
2022/11/09 06:20:21;;;;;;;4.40;1.50;;;;;;;18.81;50.60;100560.25;5064079;28;20037;-65
2022/11/09 06:22:57;;;;;;;4.35;1.30;;;;;;;18.80;50.89;100569.13;5063738;28;20043;-64
2022/11/09 06:25:22;;;;;;;4.38;1.45;;;;;;;18.84;51.00;100574.03;5063394;28;20032;-65
2022/11/09 06:27:48;;;;;;;5.38;1.38;;;;;;;18.84;51.40;100573.22;5063997;28;20039;-65
2022/11/09 06:30:14;;;;;;;4.93;1.55;;;;;;;18.84;51.38;100574.03;5063692;28;20040;-65
2022/11/09 06:32:39;;;;;;;4.13;1.45;;;;;;;18.86;51.25;100581.84;5064011;28;20032;-65
2022/11/09 06:35:05;;;;;;;4.53;1.53;;;;;;;18.86;51.27;100576.56;5063841;28;20071;-67
2022/11/09 06:37:30;;;;;;;4.00;1.20;;;;;;;18.90;51.08;100579.75;5063698;28;20859;-65
2022/11/09 06:39:55;;;;;;;3.77;1.23;;;;;;;18.92;51.16;100573.38;5063317;28;20040;-66
2022/11/09 06:42:20;;;;;;;4.53;1.35;;;;;;;18.95;50.94;100588.13;5063662;28;20986;-65
2022/11/09 06:44:46;;;;;;;4.10;1.30;;;;;;;18.95;50.97;100581.03;5063129;28;20062;-65
2022/11/09 06:47:11;;;;;;;3.63;1.07;;;;;;;19.00;51.10;100580.63;5063838;28;20036;-66
2022/11/09 06:49:36;;;;;;;4.15;1.55;;;;;;;19.05;50.96;100588.13;5063410;28;20318;-65
2022/11/09 06:52:02;;;;;;;4.77;1.40;;;;;;;19.09;50.89;100592.16;5063547;28;20043;-65
2022/11/09 06:54:27;;;;;;;4.57;1.48;;;;;;;19.07;50.96;100587.00;5063151;28;20313;-65
2022/11/09 06:56:53;;;;;;;4.68;1.30;;;;;;;19.13;50.73;100591.75;5063331;28;20439;-66
2022/11/09 06:59:19;;;;;;;3.85;1.20;;;;;;;19.13;50.65;100591.75;5063383;28;20028;-65
2022/11/09 07:01:44;;;;;;;3.65;1.30;;;;;;;19.17;50.72;100600.25;5063074;28;20040;-66
2022/11/09 07:04:12;;;;;;;4.38;1.70;;;;;;;19.16;50.92;100595.94;5045645;28;20033;-66
2022/11/09 07:06:41;;;;;;;2.47;1.02;;;;;;;19.18;50.75;100593.97;5063252;28;20031;-65
2022/11/09 07:09:08;;;;;;;3.05;1.00;;;;;;;19.22;50.92;100603.31;5062865;28;20032;-66
2022/11/09 07:11:33;;;;;;;3.97;1.33;;;;;;;19.21;50.43;100602.44;5062954;28;20608;-65
2022/11/09 07:14:00;;;;;;;4.07;1.33;;;;;;;19.25;50.71;100608.31;5063311;28;20036;-65
2022/11/09 07:16:25;;;;;;;3.40;1.15;;;;;;;19.28;50.61;100609.84;5062228;28;20082;-66
2022/11/09 07:18:51;;;;;;;4.07;1.20;;;;;;;19.26;50.68;100603.84;5063293;28;20025;-69
2022/11/09 07:21:16;;;;;;;5.07;1.38;;;;;;;19.27;50.60;100614.28;5062874;28;20029;-65
2022/11/09 07:23:42;;;;;;;4.65;1.10;;;;;;;19.27;50.55;100614.28;5063502;28;20923;-66
2022/11/09 07:26:07;;;;;;;3.90;1.17;;;;;;;19.29;50.72;100620.25;5062189;28;20043;-64
2022/11/09 07:28:33;;;;;;;4.40;1.30;;;;;;;19.33;50.63;100620.84;5063087;28;20391;-64
2022/11/09 07:30:58;;;;;;;5.22;1.20;;;;;;;19.37;50.72;100624.84;5062595;28;20082;-65
2022/11/09 07:33:24;;;;;;;4.90;1.55;;;;;;;19.38;50.69;100627.38;5062793;28;20094;-65
2022/11/09 07:35:50;;;;;;;3.78;1.20;;;;;;;19.37;50.74;100624.84;5062747;28;20564;-66
2022/11/09 07:38:15;;;;;;;4.28;1.20;;;;;;;19.37;50.65;100624.84;5063493;28;20032;-65
2022/11/09 07:40:41;;;;;;;4.10;1.25;;;;;;;19.40;51.04;100632.50;5062472;28;20158;-65
2022/11/09 07:43:07;;;;;;;4.05;1.40;;;;;;;19.39;51.01;100621.13;5062876;28;20471;-66
2022/11/09 07:45:34;;;;;;;5.25;1.27;;;;;;;19.42;50.91;100622.63;5044664;28;20440;-66
2022/11/09 07:48:02;;;;;;;3.65;1.30;;;;;;;19.42;50.92;100627.91;5062654;28;20036;-67
2022/11/09 07:50:30;;;;;;;2.70;1.08;;;;;;;19.44;51.12;100625.13;5062808;28;20039;-65
2022/11/09 07:52:56;;;;;;;5.18;1.17;;;;;;;19.45;51.17;100624.19;5062924;28;20029;-64
2022/11/09 07:55:22;;;;;;;4.50;1.40;;;;;;;19.49;51.09;100625.59;5061848;28;20721;-65
2022/11/09 07:57:48;;;;;;;3.35;1.15;;;;;;;19.51;51.03;100637.66;5062799;28;20035;-67
2022/11/09 08:00:14;;;;;;;5.13;1.40;;;;;;;19.48;51.20;100637.13;5062058;28;20032;-66
2022/11/09 08:02:39;;;;;;;3.88;1.25;;;;;;;19.49;51.29;100634.34;5062818;28;20475;-63
2022/11/09 08:05:05;;;;;;;5.07;1.17;;;;;;;19.50;51.13;100637.81;5062438;28;20035;-64
2022/11/09 08:07:32;;;;;;;4.38;1.33;;;;;;;19.53;51.28;100646.28;5061782;28;20032;-67
2022/11/09 08:09:57;;;;;;;3.97;1.20;;;;;;;19.53;51.34;100648.94;5061918;28;20028;-63
2022/11/09 08:12:23;;;;;;;5.63;1.20;;;;;;;19.50;51.28;100636.00;5043929;28;20361;-65
2022/11/09 08:14:48;;;;;;;5.35;1.17;;;;;;;19.55;51.19;100654.06;5062127;28;20063;-65
2022/11/09 08:17:13;;;;;;;4.70;1.20;;;;;;;19.56;51.47;100642.53;5061806;28;20468;-68
2022/11/09 08:19:38;;;;;;;5.13;1.10;;;;;;;19.57;51.39;100658.25;5062246;28;20598;-66
2022/11/09 08:22:04;;;;;;;4.40;1.20;;;;;;;19.55;51.38;100652.28;5061344;28;20362;-65
2022/11/09 08:24:29;;;;;;;3.05;1.20;;;;;;;19.58;51.34;100656.44;5061876;28;20063;-67
2022/11/09 08:26:54;;;;;;;4.27;1.50;;;;;;;19.58;51.40;100667.00;5061451;28;20472;-65
2022/11/09 08:29:20;;;;;;;4.47;1.10;;;;;;;19.50;51.61;100654.50;5062072;28;20281;-63
2022/11/09 08:31:48;;;;;;;3.67;1.30;;;;;;;19.60;51.24;100665.09;5061325;28;20024;-65
2022/11/09 08:34:14;;;;;;;4.57;1.10;;;;;;;19.61;51.51;100663.28;5061818;28;20273;-65
2022/11/09 08:36:39;;;;;;;4.05;1.27;;;;;;;19.58;51.39;100670.50;5062060;28;20392;-65
2022/11/09 08:39:04;;;;;;;5.10;1.25;;;;;;;19.55;51.33;100664.66;5061470;28;20464;-66
2022/11/09 08:41:30;;;;;;;4.13;1.23;;;;;;;19.57;51.39;100673.28;5061543;28;20028;-68
2022/11/09 08:43:55;;;;;;;4.47;1.13;;;;;;;19.57;51.02;100681.22;5061566;28;20082;-64
2022/11/09 08:46:20;;;;;;;4.33;1.10;;;;;;;19.57;51.12;100682.03;5061695;28;20173;-66
2022/11/09 08:48:45;;;;;;;3.80;1.03;;;;;;;19.53;51.02;100670.06;5061410;28;20254;-69
2022/11/09 08:51:11;;;;;;;2.88;1.10;;;;;;;19.53;51.14;100674.53;5061554;28;20269;-67
2022/11/09 08:53:36;;;;;;;4.55;1.30;;;;;;;19.57;51.04;100678.59;5061361;28;20483;-65
2022/11/09 08:56:05;;;;;;;5.13;1.10;;;;;;;19.56;50.84;100679.53;5061307;28;20393;-67
2022/11/09 08:58:31;;;;;;;5.47;1.10;;;;;;;19.52;50.93;100672.88;5061108;28;20745;-65
2022/11/09 09:00:57;;;;;;;4.78;1.05;;;;;;;19.50;51.13;100665.09;5061147;28;20037;-65
2022/11/09 09:03:22;;;;;;;4.93;1.33;;;;;;;19.50;50.97;100678.31;5061253;28;20119;-66
2022/11/09 09:05:47;;;;;;;4.25;1.20;;;;;;;19.54;51.00;100677.03;5060943;28;20339;-65
2022/11/09 09:08:14;;;;;;;7.40;2.00;;;;;;;19.54;50.99;100678.84;5061560;28;20028;-65
2022/11/09 09:10:40;;;;;;;3.63;1.20;;;;;;;19.53;51.06;100671.88;5043194;28;20047;-67
2022/11/09 09:13:05;;;;;;;3.42;1.08;;;;;;;19.56;50.72;100683.00;5061012;28;20388;-67
2022/11/09 09:15:30;;;;;;;4.97;1.47;;;;;;;19.55;50.93;100685.78;5061402;28;20135;-67
2022/11/09 09:17:59;;;;;;;5.72;1.08;;;;;;;19.60;50.74;100688.03;5043326;28;20261;-66
2022/11/09 09:20:25;;;;;;;4.65;1.15;;;;;;;19.59;50.78;100687.19;5061037;28;20067;-66
2022/11/09 09:22:50;;;;;;;5.35;1.52;;;;;;;19.53;50.98;100685.94;5060983;28;20118;-66
2022/11/09 09:25:15;;;;;;;4.07;1.10;;;;;;;19.57;50.76;100689.97;5061179;28;20044;-66
2022/11/09 09:27:43;;;;;;;5.43;1.10;;;;;;;19.57;50.82;100694.44;5061159;28;20253;-66
2022/11/09 09:30:08;;;;;;;4.90;1.30;;;;;;;19.54;50.65;100692.06;5061093;28;20032;-66
2022/11/09 09:32:34;;;;;;;4.53;1.20;;;;;;;19.47;50.60;100675.94;5061164;28;20039;-64
2022/11/09 09:34:59;;;;;;;4.28;1.10;;;;;;;19.56;50.66;100693.59;5061378;28;20035;-65
2022/11/09 09:37:24;;;;;;;3.63;0.98;;;;;;;19.55;50.64;100701.66;5061028;28;20388;-64
2022/11/09 09:39:50;;;;;;;4.40;1.05;;;;;;;19.58;50.64;100701.38;5062730;28;20115;-67
2022/11/09 09:42:18;;;;;;;4.85;1.52;;;;;;;19.56;50.62;100692.75;5065043;28;20471;-68
2022/11/09 09:45:13;;;;;;;4.20;1.10;;;;;;;19.55;50.44;100701.66;5064682;28;20446;-68
2022/11/09 09:47:45;;;;;;;4.63;1.30;;;;;;;19.53;50.32;100695.69;5064839;28;20032;-66
2022/11/09 09:50:36;;;;;;;3.50;1.00;;;;;;;19.55;50.28;100705.16;5064726;28;20047;-66
2022/11/09 09:53:28;;;;;;;3.40;0.98;;;;;;;19.57;50.41;100719.06;5064887;28;20131;-66
2022/11/09 09:56:01;;;;;;;3.28;0.88;;;;;;;19.55;50.32;100701.66;5064450;28;20222;-66
2022/11/09 09:58:32;;;;;;;3.63;1.10;;;;;;;19.55;50.36;100717.50;5064588;28;20045;-66
2022/11/09 10:01:05;;;;;;;4.13;1.10;;;;;;;19.54;50.28;100729.91;5064246;28;20025;-64
2022/11/09 10:03:31;;;;;;;3.85;1.15;;;;;;;19.55;50.28;100730.72;5065003;28;20032;-66
2022/11/09 10:06:10;;;;;;;3.67;1.17;;;;;;;19.57;50.40;100734.91;5064333;28;20032;-66
2022/11/09 10:08:56;;;;;;;4.78;1.10;;;;;;;19.58;50.23;100738.38;5064511;28;20028;-65
2022/11/09 10:11:34;;;;;;;3.92;1.08;;;;;;;19.56;50.45;100735.88;5046387;28;20044;-65
2022/11/09 10:14:28;;;;;;;4.40;1.23;;;;;;;19.58;50.19;100735.75;5064382;28;21205;-64
2022/11/09 10:17:08;;;;;;;6.43;1.30;;;;;;;19.58;50.27;100743.66;5064096;28;20036;-66
2022/11/09 10:19:40;;;;;;;4.22;1.40;;;;;;;19.58;50.56;100744.53;5064414;28;20033;-66
2022/11/09 10:22:21;;;;;;;4.57;1.10;;;;;;;19.55;50.28;100739.50;5063769;28;20832;-67
2022/11/09 10:24:58;;;;;;;4.05;1.30;;;;;;;19.57;50.20;100744.66;5063621;28;20541;-66
2022/11/09 10:27:34;;;;;;;4.93;1.00;;;;;;;19.57;50.27;100747.31;5064053;28;20021;-65
2022/11/09 10:30:00;;;;;;;5.20;1.10;;;;;;;19.46;50.34;100719.19;5063980;28;20032;-64
2022/11/09 10:32:30;;;;;;;5.68;1.30;;;;;;;19.57;50.12;100740.19;5063613;28;20101;-66
2022/11/09 10:35:33;;;;;;;4.47;1.15;;;;;;;19.58;50.16;100738.38;5063874;28;20032;-66
2022/11/09 10:37:58;;;;;;;4.07;1.10;;;;;;;19.56;49.92;100743.81;5063520;28;20036;-66
2022/11/09 10:40:53;;;;;;;3.55;1.27;;;;;;;19.57;49.80;100748.13;5063437;28;21006;-65
2022/11/09 10:43:18;;;;;;;4.38;1.17;;;;;;;19.52;49.96;100737.16;5063557;28;20061;-66
2022/11/09 10:45:44;;;;;;;3.75;1.05;;;;;;;19.54;49.89;100742.28;5063119;28;20043;-66
2022/11/09 10:48:12;;;;;;;3.30;0.93;;;;;;;19.54;49.70;100745.75;5063650;28;20036;-66
2022/11/09 10:50:52;;;;;;;6.05;1.10;;;;;;;19.56;49.51;100764.97;5062268;28;20109;-64
2022/11/09 10:53:26;;;;;;;5.88;1.45;;;;;;;19.52;49.71;100755.66;5063593;28;20041;-65
2022/11/09 10:56:12;;;;;;;3.80;1.00;;;;;;;19.50;49.84;100760.25;5063632;28;20565;-65
2022/11/09 10:58:45;;;;;;;5.53;1.00;;;;;;;19.52;49.98;100762.75;5064101;28;20036;-66
2022/11/09 11:01:22;;;;;;;4.07;1.00;;;;;;;19.55;50.21;100773.03;5063490;28;20135;-66
2022/11/09 11:03:52;;;;;;;3.53;1.02;;;;;;;19.51;49.75;100758.41;5063469;28;20096;-67
2022/11/09 11:06:24;;;;;;;5.82;1.30;;;;;;;19.55;49.61;100770.38;5063412;28;20028;-65
2022/11/09 11:09:05;;;;;;;4.80;1.13;;;;;;;19.54;49.90;100769.56;5045429;28;20964;-66
2022/11/09 11:11:32;;;;;;;5.10;1.25;;;;;;;19.51;50.01;100761.88;5063149;28;20040;-66
2022/11/09 11:14:28;;;;;;;3.60;1.10;;;;;;;19.55;49.66;100767.72;5063350;28;20037;-67
2022/11/09 11:16:54;;;;;;;5.75;1.23;;;;;;;19.53;49.87;100772.31;5063213;28;20040;-68
2022/11/09 11:19:34;;;;;;;4.38;1.08;;;;;;;19.55;50.00;100776.53;5062909;28;20090;-67
2022/11/09 11:22:20;;;;;;;4.07;1.02;;;;;;;19.55;49.83;100779.16;5062829;28;20115;-66
2022/11/09 11:25:00;;;;;;;3.95;1.20;;;;;;;19.55;49.95;100780.94;5062571;28;20266;-67
2022/11/09 11:27:35;;;;;;;3.65;0.88;;;;;;;19.55;50.07;100781.81;5062769;28;20107;-65